SBGOSBCF

Guest
Details From SBGO - Santo Genoveva
To SBCF - Tancredo Neves
Flight Number -
Tags generated
Created
Modified
Stats Distance 350 nm / 648 km
Max Altitude 13,900 ft / 4,237 m
Waypoints 3
Social Downloads 5
Likes 0
Share VATSIM

Download

Looking for another format? Having issues loading an existing format? Contact us
Advertisement - Login to hide

Notes

Basic altitude profile: - Ascent Rate: 1500ft/min - Ascent Speed: 120kts - Cruise Altitude: 11500ft - Cruise Speed: 160kts - Descent Rate: 1500ft/min - Descent Speed: 140kts Options: - Use NATs: no - Use PACOTS: no - Use low airways: no - Use high airways: no

Route

SBGO 1900S04500W SBCF

ID Type Via Altitude Latitude Longitude Leg Dist Tot Dist Heading (true) Name
O SBGO APT - 0 ft / 0 m -16.63203˚ -49.22069˚ - 0 nm - Santo Genoveva
1900S04500W LATLON - 13,900 ft / 4,237 m -19.00000˚ -45.00000˚ 280 nm 280 nm 121° / 120° -
O SBCF APT - 0 ft / 0 m -19.63376˚ -43.96885˚ 69 nm 349 nm 123° / 123° Tancredo Neves

Altitude Profile

Advertisement - Login to hide

Weather


0- 5 10 15 20 25 30 35+ Temperature / ° C

Clouds and Precipitation
Forecast for 2018-05-26 18:00 UTC. Updated 5 hours ago

Ground ~20,000 ft ~40,000 ft Winds

SBGO

Details ICAO SBGO (GYN)
Name Santo Genoveva
Region Brazil
Timezone America/Sao_Paulo (UTC-3.0)
Stats Elevation 2,450 ft / 747 m (AMSL)
Location -16.632032° -49.220686°
Runways 1
Magnetic Variation 21.040° W

METAR

SBGO 262100Z 09007KT CAVOK 25/12 Q1018

Decode

TAF

TAF SBGO 261600Z 2618/2718 11007KT 8000 NSC TX27/2618Z TN15/2708Z BECMG 2622/2624 13005KT CAVOK BECMG 2714/2716 09007KT RMK PDB

Decode

Departure Runways

ID Width Length Bearing (true) Bearing (mag) Surface Threshold Offset Overrun Length
14 148 ft / 45 m 8,208 ft / 2,502 m 120.42° 141.46° Asphalt 0 ft / 0 m 0 ft / 0 m
32 148 ft / 45 m 8,208 ft / 2,502 m 300.41° 321.45° Asphalt 980 ft / 299 m 0 ft / 0 m

SBCF

Details ICAO SBCF (CNF)
Name Tancredo Neves
Region Brazil
Timezone America/Sao_Paulo (UTC-3.0)
Stats Elevation 2,715 ft / 828 m (AMSL)
Location -19.633758° -43.968854°
Runways 1
Magnetic Variation 22.845° W

METAR

SBCF 262100Z 10010KT 9999 FEW025 19/14 Q1022

Decode

TAF

TAF SBCF 261600Z 2618/2718 09007KT 9999 BKN030 TX22/2618Z TN13/2710Z BECMG 2620/2622 12007KT 8000 NSC BECMG 2709/2711 15005KT BECMG 2714/2716 08005KT BKN030 RMK PDB

Decode

Destination Runways

ID Width Length Bearing (true) Bearing (mag) Surface Threshold Offset Overrun Length
16 148 ft / 45 m 9,872 ft / 3,009 m 138.97° 161.81° Asphalt 0 ft / 0 m 203 ft / 62 m
34 148 ft / 45 m 9,872 ft / 3,009 m 318.96° 341.80° Asphalt 0 ft / 0 m 203 ft / 62 m

Approach Navaids

Runway Type Ident Frequency Range Bearing (true) Bearing (mag) Slope Elevation
16 Localiser ICF 109.70 MHz 18 nm / 33 km 138.90° 161.75° - 2,716 ft / 828 m (AMSL)
16 Glidescope ICF 109.70 MHz 10 nm / 19 km 138.96° 161.81° 3.00° 2,716 ft / 828 m (AMSL)

Popular Alternatives